sensor_id;sensor_type;location;lat;lon;timestamp;P1;durP1;ratioP1;P2;durP2;ratioP2
17727;SDS011;8984;49.268;12.302;2022-12-07T00:00:52;5.30;;;4.80;;
17727;SDS011;8984;49.268;12.302;2022-12-07T00:03:20;6.50;;;5.57;;
17727;SDS011;8984;49.268;12.302;2022-12-07T00:05:48;5.57;;;5.03;;
17727;SDS011;8984;49.268;12.302;2022-12-07T00:08:15;5.43;;;4.87;;
17727;SDS011;8984;49.268;12.302;2022-12-07T00:10:42;6.33;;;4.90;;
17727;SDS011;8984;49.268;12.302;2022-12-07T00:13:09;6.00;;;5.40;;
17727;SDS011;8984;49.268;12.302;2022-12-07T00:15:36;5.53;;;5.03;;
17727;SDS011;8984;49.268;12.302;2022-12-07T00:18:04;6.57;;;4.70;;
17727;SDS011;8984;49.268;12.302;2022-12-07T00:20:36;5.37;;;4.87;;
17727;SDS011;8984;49.268;12.302;2022-12-07T00:23:03;6.90;;;5.53;;
17727;SDS011;8984;49.268;12.302;2022-12-07T00:25:30;6.07;;;5.47;;
17727;SDS011;8984;49.268;12.302;2022-12-07T00:27:57;5.90;;;5.30;;
17727;SDS011;8984;49.268;12.302;2022-12-07T00:30:24;8.17;;;5.90;;
17727;SDS011;8984;49.268;12.302;2022-12-07T00:32:51;6.03;;;5.43;;
17727;SDS011;8984;49.268;12.302;2022-12-07T00:35:18;6.20;;;5.40;;
17727;SDS011;8984;49.268;12.302;2022-12-07T00:37:46;7.13;;;6.10;;
17727;SDS011;8984;49.268;12.302;2022-12-07T00:40:13;7.23;;;6.10;;
17727;SDS011;8984;49.268;12.302;2022-12-07T00:42:41;6.70;;;5.87;;
17727;SDS011;8984;49.268;12.302;2022-12-07T00:45:10;6.30;;;5.70;;
17727;SDS011;8984;49.268;12.302;2022-12-07T00:47:37;7.60;;;6.23;;
17727;SDS011;8984;49.268;12.302;2022-12-07T00:50:05;8.43;;;6.87;;
17727;SDS011;8984;49.268;12.302;2022-12-07T00:52:32;7.83;;;6.20;;
17727;SDS011;8984;49.268;12.302;2022-12-07T00:55:00;7.20;;;5.87;;
17727;SDS011;8984;49.268;12.302;2022-12-07T00:57:27;7.47;;;6.27;;
17727;SDS011;8984;49.268;12.302;2022-12-07T00:59:56;6.77;;;5.43;;
17727;SDS011;8984;49.268;12.302;2022-12-07T01:02:23;6.70;;;6.00;;
17727;SDS011;8984;49.268;12.302;2022-12-07T01:04:49;6.63;;;5.90;;
17727;SDS011;8984;49.268;12.302;2022-12-07T01:07:16;8.60;;;6.90;;
17727;SDS011;8984;49.268;12.302;2022-12-07T01:09:43;6.83;;;6.13;;
17727;SDS011;8984;49.268;12.302;2022-12-07T01:12:12;9.53;;;6.57;;
17727;SDS011;8984;49.268;12.302;2022-12-07T01:14:39;6.83;;;6.13;;
17727;SDS011;8984;49.268;12.302;2022-12-07T01:17:07;8.23;;;6.30;;
17727;SDS011;8984;49.268;12.302;2022-12-07T01:19:34;7.70;;;6.90;;
17727;SDS011;8984;49.268;12.302;2022-12-07T01:22:01;6.83;;;6.07;;
17727;SDS011;8984;49.268;12.302;2022-12-07T01:24:27;6.70;;;6.00;;
17727;SDS011;8984;49.268;12.302;2022-12-07T01:26:54;8.90;;;6.50;;
17727;SDS011;8984;49.268;12.302;2022-12-07T01:29:23;9.77;;;7.27;;
17727;SDS011;8984;49.268;12.302;2022-12-07T01:31:50;8.80;;;7.23;;
17727;SDS011;8984;49.268;12.302;2022-12-07T01:34:16;8.63;;;7.67;;
17727;SDS011;8984;49.268;12.302;2022-12-07T01:36:43;8.73;;;7.57;;
17727;SDS011;8984;49.268;12.302;2022-12-07T01:39:10;8.33;;;7.43;;
17727;SDS011;8984;49.268;12.302;2022-12-07T01:41:38;8.63;;;6.33;;
17727;SDS011;8984;49.268;12.302;2022-12-07T01:44:19;9.37;;;7.83;;
17727;SDS011;8984;49.268;12.302;2022-12-07T01:46:49;7.80;;;7.00;;
17727;SDS011;8984;49.268;12.302;2022-12-07T01:49:26;9.10;;;7.70;;
17727;SDS011;8984;49.268;12.302;2022-12-07T01:52:00;9.10;;;7.87;;
17727;SDS011;8984;49.268;12.302;2022-12-07T01:54:33;10.80;;;8.60;;
17727;SDS011;8984;49.268;12.302;2022-12-07T01:57:02;8.60;;;7.70;;
17727;SDS011;8984;49.268;12.302;2022-12-07T01:59:30;9.93;;;8.80;;
17727;SDS011;8984;49.268;12.302;2022-12-07T02:01:59;9.63;;;7.73;;
17727;SDS011;8984;49.268;12.302;2022-12-07T02:04:30;8.30;;;7.47;;
17727;SDS011;8984;49.268;12.302;2022-12-07T02:06:58;11.27;;;8.50;;
17727;SDS011;8984;49.268;12.302;2022-12-07T02:09:24;9.87;;;8.87;;
17727;SDS011;8984;49.268;12.302;2022-12-07T02:11:51;10.37;;;7.87;;
17727;SDS011;8984;49.268;12.302;2022-12-07T02:14:20;9.40;;;7.93;;
17727;SDS011;8984;49.268;12.302;2022-12-07T02:16:49;13.13;;;8.87;;
17727;SDS011;8984;49.268;12.302;2022-12-07T02:22:40;8.73;;;7.83;;
17727;SDS011;8984;49.268;12.302;2022-12-07T02:25:27;8.80;;;7.87;;
17727;SDS011;8984;49.268;12.302;2022-12-07T02:28:03;8.87;;;7.97;;
17727;SDS011;8984;49.268;12.302;2022-12-07T02:30:34;8.57;;;7.40;;
17727;SDS011;8984;49.268;12.302;2022-12-07T02:33:07;7.93;;;7.10;;
17727;SDS011;8984;49.268;12.302;2022-12-07T02:35:40;7.70;;;6.93;;
17727;SDS011;8984;49.268;12.302;2022-12-07T02:38:12;7.67;;;6.97;;
17727;SDS011;8984;49.268;12.302;2022-12-07T02:40:42;7.23;;;6.50;;
17727;SDS011;8984;49.268;12.302;2022-12-07T02:43:14;7.53;;;6.80;;
17727;SDS011;8984;49.268;12.302;2022-12-07T02:45:47;9.00;;;8.10;;
17727;SDS011;8984;49.268;12.302;2022-12-07T02:48:18;8.87;;;7.70;;
17727;SDS011;8984;49.268;12.302;2022-12-07T02:50:48;8.33;;;7.43;;
17727;SDS011;8984;49.268;12.302;2022-12-07T02:53:29;10.13;;;8.57;;
17727;SDS011;8984;49.268;12.302;2022-12-07T02:55:57;8.30;;;7.43;;
17727;SDS011;8984;49.268;12.302;2022-12-07T02:58:29;9.70;;;8.70;;
17727;SDS011;8984;49.268;12.302;2022-12-07T03:01:15;8.17;;;7.37;;
17727;SDS011;8984;49.268;12.302;2022-12-07T03:03:54;8.53;;;7.73;;
17727;SDS011;8984;49.268;12.302;2022-12-07T03:06:30;8.13;;;7.33;;
17727;SDS011;8984;49.268;12.302;2022-12-07T03:09:01;9.40;;;8.27;;
17727;SDS011;8984;49.268;12.302;2022-12-07T03:11:34;9.17;;;8.20;;
17727;SDS011;8984;49.268;12.302;2022-12-07T03:14:09;9.13;;;8.20;;
17727;SDS011;8984;49.268;12.302;2022-12-07T03:16:45;8.67;;;7.77;;
17727;SDS011;8984;49.268;12.302;2022-12-07T03:19:17;11.33;;;7.40;;
17727;SDS011;8984;49.268;12.302;2022-12-07T03:21:47;11.13;;;8.33;;
17727;SDS011;8984;49.268;12.302;2022-12-07T03:24:21;10.10;;;8.83;;
17727;SDS011;8984;49.268;12.302;2022-12-07T03:26:52;9.80;;;8.33;;
17727;SDS011;8984;49.268;12.302;2022-12-07T03:29:27;9.03;;;8.10;;
17727;SDS011;8984;49.268;12.302;2022-12-07T03:31:58;9.20;;;8.30;;
17727;SDS011;8984;49.268;12.302;2022-12-07T03:34:29;8.80;;;7.90;;
17727;SDS011;8984;49.268;12.302;2022-12-07T03:37:00;9.43;;;8.40;;
17727;SDS011;8984;49.268;12.302;2022-12-07T03:39:33;9.33;;;8.30;;
17727;SDS011;8984;49.268;12.302;2022-12-07T03:42:04;8.70;;;7.73;;
17727;SDS011;8984;49.268;12.302;2022-12-07T03:44:33;9.57;;;8.30;;
17727;SDS011;8984;49.268;12.302;2022-12-07T03:47:04;9.13;;;8.23;;
17727;SDS011;8984;49.268;12.302;2022-12-07T03:49:37;8.73;;;7.30;;
17727;SDS011;8984;49.268;12.302;2022-12-07T03:52:11;9.03;;;7.97;;
17727;SDS011;8984;49.268;12.302;2022-12-07T03:54:45;8.47;;;7.57;;
17727;SDS011;8984;49.268;12.302;2022-12-07T03:57:15;8.23;;;7.43;;
17727;SDS011;8984;49.268;12.302;2022-12-07T03:59:43;12.03;;;8.13;;
17727;SDS011;8984;49.268;12.302;2022-12-07T04:02:12;8.73;;;7.70;;
17727;SDS011;8984;49.268;12.302;2022-12-07T04:04:40;8.40;;;7.37;;
17727;SDS011;8984;49.268;12.302;2022-12-07T04:07:08;8.73;;;7.83;;
17727;SDS011;8984;49.268;12.302;2022-12-07T04:09:35;7.93;;;7.13;;
17727;SDS011;8984;49.268;12.302;2022-12-07T04:12:02;8.67;;;7.80;;
17727;SDS011;8984;49.268;12.302;2022-12-07T04:14:29;8.57;;;7.67;;
17727;SDS011;8984;49.268;12.302;2022-12-07T04:16:57;8.80;;;7.90;;
17727;SDS011;8984;49.268;12.302;2022-12-07T04:19:27;8.47;;;7.67;;
17727;SDS011;8984;49.268;12.302;2022-12-07T04:21:55;8.77;;;7.70;;
17727;SDS011;8984;49.268;12.302;2022-12-07T04:24:23;8.60;;;7.70;;
17727;SDS011;8984;49.268;12.302;2022-12-07T04:26:50;9.80;;;7.57;;
17727;SDS011;8984;49.268;12.302;2022-12-07T04:29:18;12.37;;;7.97;;
17727;SDS011;8984;49.268;12.302;2022-12-07T04:31:45;10.00;;;8.33;;
17727;SDS011;8984;49.268;12.302;2022-12-07T04:34:12;7.93;;;7.13;;
17727;SDS011;8984;49.268;12.302;2022-12-07T04:36:42;8.97;;;8.03;;
17727;SDS011;8984;49.268;12.302;2022-12-07T04:39:13;9.63;;;8.63;;
17727;SDS011;8984;49.268;12.302;2022-12-07T04:41:45;10.33;;;8.67;;
17727;SDS011;8984;49.268;12.302;2022-12-07T04:44:12;8.90;;;8.00;;
17727;SDS011;8984;49.268;12.302;2022-12-07T04:46:40;10.43;;;9.33;;
17727;SDS011;8984;49.268;12.302;2022-12-07T04:49:07;12.20;;;9.63;;
17727;SDS011;8984;49.268;12.302;2022-12-07T04:51:34;12.37;;;9.43;;
17727;SDS011;8984;49.268;12.302;2022-12-07T04:54:03;11.40;;;9.77;;
17727;SDS011;8984;49.268;12.302;2022-12-07T04:56:30;9.97;;;8.50;;
17727;SDS011;8984;49.268;12.302;2022-12-07T04:58:57;9.93;;;8.93;;
17727;SDS011;8984;49.268;12.302;2022-12-07T05:01:24;10.37;;;9.03;;
17727;SDS011;8984;49.268;12.302;2022-12-07T05:03:51;10.43;;;9.30;;
17727;SDS011;8984;49.268;12.302;2022-12-07T05:06:17;13.17;;;10.63;;
17727;SDS011;8984;49.268;12.302;2022-12-07T05:08:44;11.70;;;9.53;;
17727;SDS011;8984;49.268;12.302;2022-12-07T05:11:13;10.73;;;9.17;;
17727;SDS011;8984;49.268;12.302;2022-12-07T05:14:01;9.33;;;8.30;;
17727;SDS011;8984;49.268;12.302;2022-12-07T05:16:29;11.13;;;8.80;;
17727;SDS011;8984;49.268;12.302;2022-12-07T05:18:56;10.53;;;8.87;;
17727;SDS011;8984;49.268;12.302;2022-12-07T05:21:23;11.60;;;9.33;;
17727;SDS011;8984;49.268;12.302;2022-12-07T05:23:50;11.30;;;9.33;;
17727;SDS011;8984;49.268;12.302;2022-12-07T05:26:22;11.67;;;8.73;;
17727;SDS011;8984;49.268;12.302;2022-12-07T05:28:52;38.50;;;20.20;;
17727;SDS011;8984;49.268;12.302;2022-12-07T05:31:20;41.53;;;22.20;;
17727;SDS011;8984;49.268;12.302;2022-12-07T05:33:48;41.90;;;22.53;;
17727;SDS011;8984;49.268;12.302;2022-12-07T05:36:15;39.17;;;20.97;;
17727;SDS011;8984;49.268;12.302;2022-12-07T05:38:42;26.37;;;15.33;;
17727;SDS011;8984;49.268;12.302;2022-12-07T05:41:11;22.17;;;13.23;;
17727;SDS011;8984;49.268;12.302;2022-12-07T05:43:56;27.00;;;13.07;;
17727;SDS011;8984;49.268;12.302;2022-12-07T05:46:22;27.00;;;13.53;;
17727;SDS011;8984;49.268;12.302;2022-12-07T05:48:49;26.30;;;14.83;;
17727;SDS011;8984;49.268;12.302;2022-12-07T05:51:16;15.23;;;10.30;;
17727;SDS011;8984;49.268;12.302;2022-12-07T05:53:45;17.20;;;10.80;;
17727;SDS011;8984;49.268;12.302;2022-12-07T05:56:11;13.77;;;10.60;;
17727;SDS011;8984;49.268;12.302;2022-12-07T05:58:38;14.07;;;10.27;;
17727;SDS011;8984;49.268;12.302;2022-12-07T06:01:24;11.87;;;9.67;;
17727;SDS011;8984;49.268;12.302;2022-12-07T06:03:51;10.97;;;9.00;;
17727;SDS011;8984;49.268;12.302;2022-12-07T06:06:18;11.80;;;9.80;;
17727;SDS011;8984;49.268;12.302;2022-12-07T06:08:45;12.00;;;9.80;;
17727;SDS011;8984;49.268;12.302;2022-12-07T06:11:12;11.17;;;9.20;;
17727;SDS011;8984;49.268;12.302;2022-12-07T06:13:56;11.77;;;9.07;;
17727;SDS011;8984;49.268;12.302;2022-12-07T06:16:24;12.47;;;9.93;;
17727;SDS011;8984;49.268;12.302;2022-12-07T06:18:51;13.50;;;9.93;;
17727;SDS011;8984;49.268;12.302;2022-12-07T06:21:18;13.67;;;10.50;;
17727;SDS011;8984;49.268;12.302;2022-12-07T06:23:45;12.80;;;10.17;;
17727;SDS011;8984;49.268;12.302;2022-12-07T06:26:13;13.83;;;11.30;;
17727;SDS011;8984;49.268;12.302;2022-12-07T06:28:40;12.97;;;11.03;;
17727;SDS011;8984;49.268;12.302;2022-12-07T06:31:07;11.27;;;9.90;;
17727;SDS011;8984;49.268;12.302;2022-12-07T06:33:35;16.00;;;11.33;;
17727;SDS011;8984;49.268;12.302;2022-12-07T06:36:02;13.27;;;11.13;;
17727;SDS011;8984;49.268;12.302;2022-12-07T06:38:29;15.87;;;11.63;;
17727;SDS011;8984;49.268;12.302;2022-12-07T06:40:56;16.27;;;11.77;;
17727;SDS011;8984;49.268;12.302;2022-12-07T06:43:23;15.20;;;12.27;;
17727;SDS011;8984;49.268;12.302;2022-12-07T06:45:50;14.43;;;11.70;;
17727;SDS011;8984;49.268;12.302;2022-12-07T06:48:17;16.50;;;12.20;;
17727;SDS011;8984;49.268;12.302;2022-12-07T06:50:45;13.87;;;11.40;;
17727;SDS011;8984;49.268;12.302;2022-12-07T06:53:12;15.30;;;12.03;;
17727;SDS011;8984;49.268;12.302;2022-12-07T06:55:39;15.43;;;11.50;;
17727;SDS011;8984;49.268;12.302;2022-12-07T06:58:06;17.67;;;13.47;;
17727;SDS011;8984;49.268;12.302;2022-12-07T07:00:33;15.80;;;12.50;;
17727;SDS011;8984;49.268;12.302;2022-12-07T07:03:00;15.50;;;12.27;;
17727;SDS011;8984;49.268;12.302;2022-12-07T07:05:27;15.07;;;11.90;;
17727;SDS011;8984;49.268;12.302;2022-12-07T07:07:56;14.73;;;11.87;;
17727;SDS011;8984;49.268;12.302;2022-12-07T07:10:23;17.47;;;12.97;;
17727;SDS011;8984;49.268;12.302;2022-12-07T07:12:49;14.57;;;12.20;;
17727;SDS011;8984;49.268;12.302;2022-12-07T07:15:16;16.37;;;13.23;;
17727;SDS011;8984;49.268;12.302;2022-12-07T07:17:43;15.27;;;12.33;;
17727;SDS011;8984;49.268;12.302;2022-12-07T07:20:10;16.97;;;12.67;;
17727;SDS011;8984;49.268;12.302;2022-12-07T07:22:38;16.17;;;12.00;;
17727;SDS011;8984;49.268;12.302;2022-12-07T07:25:06;16.77;;;13.43;;
17727;SDS011;8984;49.268;12.302;2022-12-07T07:27:33;18.30;;;13.47;;
17727;SDS011;8984;49.268;12.302;2022-12-07T07:30:00;16.03;;;12.87;;
17727;SDS011;8984;49.268;12.302;2022-12-07T07:32:27;15.23;;;12.67;;
17727;SDS011;8984;49.268;12.302;2022-12-07T07:34:54;18.93;;;13.30;;
17727;SDS011;8984;49.268;12.302;2022-12-07T07:37:20;15.93;;;12.73;;
17727;SDS011;8984;49.268;12.302;2022-12-07T07:39:47;15.40;;;12.43;;
17727;SDS011;8984;49.268;12.302;2022-12-07T07:42:15;14.47;;;12.17;;
17727;SDS011;8984;49.268;12.302;2022-12-07T07:44:42;17.83;;;13.53;;
17727;SDS011;8984;49.268;12.302;2022-12-07T07:47:09;16.77;;;13.13;;
17727;SDS011;8984;49.268;12.302;2022-12-07T07:49:36;17.77;;;12.67;;
17727;SDS011;8984;49.268;12.302;2022-12-07T07:52:03;16.87;;;13.40;;
17727;SDS011;8984;49.268;12.302;2022-12-07T07:54:31;16.23;;;13.07;;
17727;SDS011;8984;49.268;12.302;2022-12-07T07:56:58;17.40;;;13.83;;
17727;SDS011;8984;49.268;12.302;2022-12-07T07:59:26;18.13;;;13.53;;
17727;SDS011;8984;49.268;12.302;2022-12-07T08:01:54;18.53;;;13.00;;
17727;SDS011;8984;49.268;12.302;2022-12-07T08:04:21;17.03;;;13.67;;
17727;SDS011;8984;49.268;12.302;2022-12-07T08:06:48;18.53;;;13.80;;
17727;SDS011;8984;49.268;12.302;2022-12-07T08:09:15;18.50;;;14.80;;
17727;SDS011;8984;49.268;12.302;2022-12-07T08:11:41;18.20;;;14.67;;
17727;SDS011;8984;49.268;12.302;2022-12-07T08:14:09;17.80;;;14.00;;
17727;SDS011;8984;49.268;12.302;2022-12-07T08:16:38;20.90;;;16.27;;
17727;SDS011;8984;49.268;12.302;2022-12-07T08:19:05;18.43;;;14.60;;
17727;SDS011;8984;49.268;12.302;2022-12-07T08:21:32;17.87;;;14.67;;
17727;SDS011;8984;49.268;12.302;2022-12-07T08:23:59;19.10;;;14.27;;
17727;SDS011;8984;49.268;12.302;2022-12-07T08:26:26;19.20;;;14.50;;
17727;SDS011;8984;49.268;12.302;2022-12-07T08:28:53;18.37;;;15.10;;
17727;SDS011;8984;49.268;12.302;2022-12-07T08:31:20;17.83;;;13.57;;
17727;SDS011;8984;49.268;12.302;2022-12-07T08:33:49;19.60;;;14.83;;
17727;SDS011;8984;49.268;12.302;2022-12-07T08:36:16;16.77;;;13.80;;
17727;SDS011;8984;49.268;12.302;2022-12-07T08:38:43;19.70;;;14.63;;
17727;SDS011;8984;49.268;12.302;2022-12-07T08:41:10;17.17;;;13.20;;
17727;SDS011;8984;49.268;12.302;2022-12-07T08:43:37;18.83;;;13.70;;
17727;SDS011;8984;49.268;12.302;2022-12-07T08:46:06;20.50;;;14.13;;
17727;SDS011;8984;49.268;12.302;2022-12-07T08:48:37;19.80;;;13.73;;
17727;SDS011;8984;49.268;12.302;2022-12-07T08:51:08;18.10;;;14.50;;
17727;SDS011;8984;49.268;12.302;2022-12-07T08:53:35;38.80;;;22.50;;
17727;SDS011;8984;49.268;12.302;2022-12-07T08:56:05;41.20;;;25.23;;
17727;SDS011;8984;49.268;12.302;2022-12-07T08:58:33;24.23;;;17.83;;
17727;SDS011;8984;49.268;12.302;2022-12-07T09:01:03;20.17;;;14.80;;
17727;SDS011;8984;49.268;12.302;2022-12-07T09:03:30;20.73;;;13.90;;
17727;SDS011;8984;49.268;12.302;2022-12-07T09:05:57;20.83;;;15.03;;
17727;SDS011;8984;49.268;12.302;2022-12-07T09:08:26;19.73;;;13.83;;
17727;SDS011;8984;49.268;12.302;2022-12-07T09:10:58;17.73;;;13.07;;
17727;SDS011;8984;49.268;12.302;2022-12-07T09:13:25;17.53;;;13.50;;
17727;SDS011;8984;49.268;12.302;2022-12-07T09:15:52;15.93;;;13.33;;
17727;SDS011;8984;49.268;12.302;2022-12-07T09:18:19;18.37;;;13.93;;
17727;SDS011;8984;49.268;12.302;2022-12-07T09:20:46;17.50;;;13.83;;
17727;SDS011;8984;49.268;12.302;2022-12-07T09:23:13;16.93;;;12.67;;
17727;SDS011;8984;49.268;12.302;2022-12-07T09:25:41;17.40;;;12.93;;
17727;SDS011;8984;49.268;12.302;2022-12-07T09:28:08;17.07;;;13.77;;
17727;SDS011;8984;49.268;12.302;2022-12-07T09:30:35;17.03;;;13.10;;
17727;SDS011;8984;49.268;12.302;2022-12-07T09:33:02;14.83;;;11.90;;
17727;SDS011;8984;49.268;12.302;2022-12-07T09:35:29;14.23;;;11.70;;
17727;SDS011;8984;49.268;12.302;2022-12-07T09:37:56;15.27;;;12.10;;
17727;SDS011;8984;49.268;12.302;2022-12-07T09:40:23;13.47;;;10.80;;
17727;SDS011;8984;49.268;12.302;2022-12-07T09:42:52;15.33;;;11.67;;
17727;SDS011;8984;49.268;12.302;2022-12-07T09:45:21;16.27;;;12.00;;
17727;SDS011;8984;49.268;12.302;2022-12-07T09:47:50;14.83;;;11.53;;
17727;SDS011;8984;49.268;12.302;2022-12-07T09:50:19;45.90;;;28.53;;
17727;SDS011;8984;49.268;12.302;2022-12-07T09:52:47;28.13;;;20.93;;
17727;SDS011;8984;49.268;12.302;2022-12-07T09:55:16;41.90;;;27.53;;
17727;SDS011;8984;49.268;12.302;2022-12-07T09:57:48;22.20;;;15.03;;
17727;SDS011;8984;49.268;12.302;2022-12-07T10:00:18;15.80;;;12.10;;
17727;SDS011;8984;49.268;12.302;2022-12-07T10:02:48;16.97;;;10.80;;
17727;SDS011;8984;49.268;12.302;2022-12-07T10:05:20;13.73;;;11.33;;
17727;SDS011;8984;49.268;12.302;2022-12-07T10:07:49;16.50;;;11.93;;
17727;SDS011;8984;49.268;12.302;2022-12-07T10:10:17;15.73;;;12.37;;
17727;SDS011;8984;49.268;12.302;2022-12-07T10:12:53;15.87;;;12.73;;
17727;SDS011;8984;49.268;12.302;2022-12-07T10:15:22;13.90;;;11.50;;
17727;SDS011;8984;49.268;12.302;2022-12-07T10:17:50;18.03;;;11.77;;
17727;SDS011;8984;49.268;12.302;2022-12-07T10:20:19;14.20;;;10.87;;
17727;SDS011;8984;49.268;12.302;2022-12-07T10:22:55;13.77;;;11.57;;
17727;SDS011;8984;49.268;12.302;2022-12-07T10:25:28;14.13;;;10.93;;
17727;SDS011;8984;49.268;12.302;2022-12-07T10:28:01;20.03;;;13.60;;
17727;SDS011;8984;49.268;12.302;2022-12-07T10:30:47;12.23;;;9.83;;
17727;SDS011;8984;49.268;12.302;2022-12-07T10:33:27;14.00;;;11.33;;
17727;SDS011;8984;49.268;12.302;2022-12-07T10:35:56;13.83;;;10.47;;
17727;SDS011;8984;49.268;12.302;2022-12-07T10:38:23;13.13;;;9.83;;
17727;SDS011;8984;49.268;12.302;2022-12-07T10:41:02;12.90;;;10.60;;
17727;SDS011;8984;49.268;12.302;2022-12-07T10:43:30;12.83;;;10.10;;
17727;SDS011;8984;49.268;12.302;2022-12-07T10:49:03;13.57;;;10.83;;
17727;SDS011;8984;49.268;12.302;2022-12-07T10:51:42;14.43;;;10.80;;
17727;SDS011;8984;49.268;12.302;2022-12-07T10:54:14;14.67;;;11.17;;
17727;SDS011;8984;49.268;12.302;2022-12-07T10:56:53;14.50;;;10.90;;
17727;SDS011;8984;49.268;12.302;2022-12-07T10:59:39;15.97;;;12.20;;
17727;SDS011;8984;49.268;12.302;2022-12-07T11:02:23;15.17;;;12.03;;
17727;SDS011;8984;49.268;12.302;2022-12-07T11:05:01;19.97;;;14.10;;
17727;SDS011;8984;49.268;12.302;2022-12-07T11:07:39;15.13;;;11.87;;
17727;SDS011;8984;49.268;12.302;2022-12-07T11:10:15;13.30;;;10.57;;
17727;SDS011;8984;49.268;12.302;2022-12-07T11:12:58;14.63;;;10.90;;
17727;SDS011;8984;49.268;12.302;2022-12-07T11:15:36;14.33;;;11.13;;
17727;SDS011;8984;49.268;12.302;2022-12-07T11:18:14;15.60;;;12.20;;
17727;SDS011;8984;49.268;12.302;2022-12-07T11:23:52;11.17;;;9.43;;
17727;SDS011;8984;49.268;12.302;2022-12-07T11:26:46;15.60;;;10.37;;
17727;SDS011;8984;49.268;12.302;2022-12-07T11:29:37;11.57;;;9.07;;
17727;SDS011;8984;49.268;12.302;2022-12-07T11:32:25;12.47;;;9.67;;
17727;SDS011;8984;49.268;12.302;2022-12-07T11:35:24;13.67;;;9.77;;
17727;SDS011;8984;49.268;12.302;2022-12-07T11:38:12;13.73;;;10.13;;
17727;SDS011;8984;49.268;12.302;2022-12-07T11:40:44;11.93;;;9.80;;
17727;SDS011;8984;49.268;12.302;2022-12-07T11:43:32;11.90;;;9.50;;
17727;SDS011;8984;49.268;12.302;2022-12-07T11:46:18;10.77;;;8.80;;
17727;SDS011;8984;49.268;12.302;2022-12-07T11:48:52;13.03;;;9.17;;
17727;SDS011;8984;49.268;12.302;2022-12-07T11:51:37;11.57;;;9.40;;
17727;SDS011;8984;49.268;12.302;2022-12-07T11:54:32;12.60;;;9.07;;
17727;SDS011;8984;49.268;12.302;2022-12-07T11:57:22;11.07;;;9.00;;
17727;SDS011;8984;49.268;12.302;2022-12-07T12:00:00;11.53;;;8.57;;
17727;SDS011;8984;49.268;12.302;2022-12-07T12:02:49;21.53;;;15.90;;
17727;SDS011;8984;49.268;12.302;2022-12-07T12:05:59;15.43;;;10.13;;
17727;SDS011;8984;49.268;12.302;2022-12-07T12:08:59;10.50;;;8.70;;
17727;SDS011;8984;49.268;12.302;2022-12-07T12:14:54;14.30;;;10.03;;
17727;SDS011;8984;49.268;12.302;2022-12-07T12:17:56;11.20;;;8.67;;
17727;SDS011;8984;49.268;12.302;2022-12-07T12:20:35;12.20;;;8.57;;
17727;SDS011;8984;49.268;12.302;2022-12-07T12:23:25;10.00;;;8.47;;
17727;SDS011;8984;49.268;12.302;2022-12-07T12:26:01;10.00;;;8.30;;
17727;SDS011;8984;49.268;12.302;2022-12-07T12:31:46;10.93;;;8.80;;
17727;SDS011;8984;49.268;12.302;2022-12-07T12:35:19;12.90;;;9.73;;
17727;SDS011;8984;49.268;12.302;2022-12-07T12:38:20;11.33;;;9.17;;
17727;SDS011;8984;49.268;12.302;2022-12-07T12:40:57;11.07;;;8.80;;
17727;SDS011;8984;49.268;12.302;2022-12-07T12:43:44;12.23;;;9.07;;
17727;SDS011;8984;49.268;12.302;2022-12-07T12:49:16;10.77;;;8.70;;
17727;SDS011;8984;49.268;12.302;2022-12-07T12:58:40;12.53;;;8.13;;
17727;SDS011;8984;49.268;12.302;2022-12-07T13:10:41;21.00;;;13.93;;
17727;SDS011;8984;49.268;12.302;2022-12-07T13:13:31;15.40;;;12.17;;
17727;SDS011;8984;49.268;12.302;2022-12-07T13:25:48;17.07;;;14.33;;
17727;SDS011;8984;49.268;12.302;2022-12-07T13:29:05;11.37;;;9.40;;
17727;SDS011;8984;49.268;12.302;2022-12-07T13:31:47;11.50;;;9.47;;
17727;SDS011;8984;49.268;12.302;2022-12-07T13:34:28;12.97;;;10.03;;
17727;SDS011;8984;49.268;12.302;2022-12-07T13:37:04;11.47;;;9.17;;
17727;SDS011;8984;49.268;12.302;2022-12-07T13:39:50;15.00;;;11.67;;
17727;SDS011;8984;49.268;12.302;2022-12-07T13:42:34;17.50;;;14.10;;
17727;SDS011;8984;49.268;12.302;2022-12-07T13:45:20;13.50;;;11.20;;
17727;SDS011;8984;49.268;12.302;2022-12-07T13:48:14;12.60;;;9.77;;
17727;SDS011;8984;49.268;12.302;2022-12-07T13:50:56;12.70;;;9.73;;
17727;SDS011;8984;49.268;12.302;2022-12-07T13:53:28;13.07;;;9.60;;
17727;SDS011;8984;49.268;12.302;2022-12-07T13:56:12;10.20;;;8.63;;
17727;SDS011;8984;49.268;12.302;2022-12-07T13:58:44;14.30;;;10.97;;
17727;SDS011;8984;49.268;12.302;2022-12-07T14:01:16;18.73;;;13.83;;
17727;SDS011;8984;49.268;12.302;2022-12-07T14:03:47;15.50;;;11.57;;
17727;SDS011;8984;49.268;12.302;2022-12-07T14:09:18;11.93;;;9.00;;
17727;SDS011;8984;49.268;12.302;2022-12-07T14:12:05;9.60;;;8.03;;
17727;SDS011;8984;49.268;12.302;2022-12-07T14:15:02;12.63;;;10.97;;
17727;SDS011;8984;49.268;12.302;2022-12-07T14:17:34;10.73;;;9.07;;
17727;SDS011;8984;49.268;12.302;2022-12-07T14:20:32;9.83;;;8.50;;
17727;SDS011;8984;49.268;12.302;2022-12-07T14:23:21;9.60;;;8.13;;
17727;SDS011;8984;49.268;12.302;2022-12-07T14:26:06;10.50;;;8.53;;
17727;SDS011;8984;49.268;12.302;2022-12-07T14:29:18;10.83;;;8.63;;
17727;SDS011;8984;49.268;12.302;2022-12-07T14:32:22;13.87;;;10.37;;
17727;SDS011;8984;49.268;12.302;2022-12-07T14:37:41;13.73;;;11.30;;
17727;SDS011;8984;49.268;12.302;2022-12-07T14:40:18;16.60;;;12.70;;
17727;SDS011;8984;49.268;12.302;2022-12-07T14:43:00;15.33;;;11.60;;
17727;SDS011;8984;49.268;12.302;2022-12-07T14:45:40;14.40;;;11.57;;
17727;SDS011;8984;49.268;12.302;2022-12-07T14:51:12;13.47;;;11.07;;
17727;SDS011;8984;49.268;12.302;2022-12-07T14:53:53;14.20;;;12.10;;
17727;SDS011;8984;49.268;12.302;2022-12-07T14:56:36;13.53;;;10.50;;
17727;SDS011;8984;49.268;12.302;2022-12-07T14:59:10;12.83;;;10.57;;
17727;SDS011;8984;49.268;12.302;2022-12-07T15:01:39;14.27;;;11.50;;
17727;SDS011;8984;49.268;12.302;2022-12-07T15:04:19;14.97;;;12.17;;
17727;SDS011;8984;49.268;12.302;2022-12-07T15:06:54;17.00;;;13.43;;
17727;SDS011;8984;49.268;12.302;2022-12-07T15:09:23;14.70;;;11.37;;
17727;SDS011;8984;49.268;12.302;2022-12-07T15:11:57;14.03;;;10.90;;
17727;SDS011;8984;49.268;12.302;2022-12-07T15:14:36;11.93;;;10.33;;
17727;SDS011;8984;49.268;12.302;2022-12-07T15:17:26;17.20;;;11.07;;
17727;SDS011;8984;49.268;12.302;2022-12-07T15:20:01;12.67;;;10.20;;
17727;SDS011;8984;49.268;12.302;2022-12-07T15:22:32;12.57;;;9.93;;
17727;SDS011;8984;49.268;12.302;2022-12-07T15:25:17;13.80;;;9.60;;
17727;SDS011;8984;49.268;12.302;2022-12-07T15:27:45;13.53;;;10.10;;
17727;SDS011;8984;49.268;12.302;2022-12-07T15:30:13;13.17;;;10.27;;
17727;SDS011;8984;49.268;12.302;2022-12-07T15:32:51;14.77;;;11.10;;
17727;SDS011;8984;49.268;12.302;2022-12-07T15:38:21;16.30;;;12.50;;
17727;SDS011;8984;49.268;12.302;2022-12-07T15:40:54;15.13;;;10.20;;
17727;SDS011;8984;49.268;12.302;2022-12-07T15:43:27;11.27;;;9.77;;
17727;SDS011;8984;49.268;12.302;2022-12-07T15:46:16;14.77;;;11.53;;
17727;SDS011;8984;49.268;12.302;2022-12-07T15:49:17;23.83;;;16.23;;
17727;SDS011;8984;49.268;12.302;2022-12-07T15:54:50;19.40;;;13.33;;
17727;SDS011;8984;49.268;12.302;2022-12-07T15:57:22;27.87;;;17.10;;
17727;SDS011;8984;49.268;12.302;2022-12-07T16:00:21;18.97;;;13.47;;
17727;SDS011;8984;49.268;12.302;2022-12-07T16:03:02;13.40;;;10.13;;